Abrera, Spain
Current Conditions -  °F | °C
As of 6:30 PM on Thursday 23 Oct 2014 (Local Time) from LELL Reporting Station
Clear Clear  
Wind Chill: 70°   Ceiling: Unl
Heat Index: 70°   Visibility: 6mi
Dew Point: 48°   Wind: 5mph
Humidity: 46%   Direction: 120°ESE
Pressure: 30"   Gusts: NA
Location:  41.52°N, 1.9°E
Report Text: LELL 231630Z 12004KT 100V160 CAVOK 21/09 Q1016
Loading
Personal Weather Stations






























Interactive Weather Map
Tropical Storm Tracking
New forecast layout! Learn more

10-Day Weather Forecast

Advertisements
Track Severe Weather on mobile